CVG weather

Cincinnati Northern Kentucky International Airport
Cincinnati, Kentucky, United States

Public forecast

Using degrees Fahrenheit for public forecast. Weather courtesy of forecast.io.

Current aviation weather report (METAR) for Cincinnati Northern Kentucky International Airport

Retrieved 2019/11/19 03:52 UTC (54 minutes ago):

KCVG 190352Z 22007KT 6SM -DZ BR FEW007 OVC020 04/02 A2979 RMK AO2 DZB49 SLP091 FEW V SCT P0000 T00390022

Aviation forecast (TAF) for Cincinnati Northern Kentucky International Airport

Retrieved 2019-11-19 00:00 UTC (5 hours ago):

TAF KCVG 182357Z 1900/2006 27004KT 2SM -DZ BR OVC005 FM190600 24003KT 4SM BR OVC012 FM191200 19003KT 5SM BR BKN024 FM191500 18005KT P6SM BKN040 FM191700 18006KT P6SM VCSH BKN025 FM191800 18006KT P6SM VCSH OVC012 FM200000 24004KT P6SM BKN012